Time;durP1;ratioP1;P1;durP2;ratioP2;P2;SDS_P1;SDS_P2;PMS_P1;PMS_P2;Temp;Humidity;BMP_temperature;BMP_pressure;BME280_temperature;BME280_humidity;BME280_pressure;Samples;Min_cycle;Max_cycle;Signal;HPM_P1;HPM_P2
2023/07/25 00:00:30;;;;;;;;;;;;;;;19.32;100.00;99361.94;5054050;28;1993;-57
2023/07/25 00:02:57;;;;;;;;;;;;;;;19.31;100.00;99360.41;5054065;28;869;-57
2023/07/25 00:05:24;;;;;;;;;;;;;;;19.27;100.00;99356.22;5053221;28;851;-57
2023/07/25 00:07:51;;;;;;;;;;;;;;;19.24;100.00;99357.91;5054192;28;815;-57
2023/07/25 00:10:18;;;;;;;;;;;;;;;19.23;100.00;99350.00;5053860;28;799;-57
2023/07/25 00:12:45;;;;;;;;;;;;;;;19.23;100.00;99347.97;5053955;28;870;-57
2023/07/25 00:15:12;;;;;;;;;;;;;;;19.25;100.00;99350.31;5053756;28;883;-57
2023/07/25 00:17:38;;;;;;;;;;;;;;;19.24;100.00;99346.72;5053851;28;877;-57
2023/07/25 00:20:06;;;;;;;;;;;;;;;19.22;100.00;99354.81;5053615;28;1889;-57
2023/07/25 00:22:33;;;;;;;;;;;;;;;19.28;100.00;99352.16;5053599;28;923;-57
2023/07/25 00:24:59;;;;;;;;;;;;;;;19.41;100.00;99351.94;5053684;28;838;-57
2023/07/25 00:27:26;;;;;;;;;;;;;;;19.51;100.00;99350.66;5035704;28;1280;-57
2023/07/25 00:29:53;;;;;;;;;;;;;;;19.56;100.00;99356.38;5053548;28;878;-57
2023/07/25 00:32:20;;;;;;;;;;;;;;;19.63;100.00;99352.47;5053394;28;857;-57
2023/07/25 00:34:50;;;;;;;;;;;;;;;19.60;100.00;99353.41;5053531;28;794;-57
2023/07/25 00:37:16;;;;;;;;;;;;;;;19.53;100.00;99345.34;5053558;28;857;-57
2023/07/25 00:39:42;;;;;;;;;;;;;;;19.57;100.00;99343.16;5053726;28;819;-57
2023/07/25 00:42:09;;;;;;;;;;;;;;;19.64;100.00;99351.19;5053246;28;1949;-57
2023/07/25 00:44:36;;;;;;;;;;;;;;;19.67;100.00;99347.44;5053333;28;888;-57
2023/07/25 00:47:03;;;;;;;;;;;;;;;19.71;100.00;99344.47;5053414;28;928;-57
2023/07/25 00:49:30;;;;;;;;;;;;;;;19.73;100.00;99348.34;5053178;28;857;-57
2023/07/25 00:51:57;;;;;;;;;;;;;;;19.73;100.00;99345.56;5053062;28;905;-57
2023/07/25 00:54:25;;;;;;;;;;;;;;;19.73;100.00;99342.75;5053174;28;814;-57
2023/07/25 00:56:52;;;;;;;;;;;;;;;19.76;100.00;99336.22;5052723;28;1337;-57
2023/07/25 00:59:18;;;;;;;;;;;;;;;19.84;100.00;99339.41;5053051;28;808;-57
2023/07/25 01:01:45;;;;;;;;;;;;;;;19.85;100.00;99335.38;5052736;28;1910;-57
2023/07/25 01:04:12;;;;;;;;;;;;;;;19.85;100.00;99338.16;5053129;28;791;-57
2023/07/25 01:06:40;;;;;;;;;;;;;;;19.84;100.00;99331.00;5053091;28;862;-57
2023/07/25 01:09:07;;;;;;;;;;;;;;;19.78;100.00;99327.31;5052807;28;834;-57
2023/07/25 01:11:34;;;;;;;;;;;;;;;19.69;100.00;99325.28;5052745;28;826;-57
2023/07/25 01:14:01;;;;;;;;;;;;;;;19.67;100.00;99324.22;5052748;28;803;-57
2023/07/25 01:16:28;;;;;;;;;;;;;;;19.71;100.00;99327.66;5052256;28;884;-57
2023/07/25 01:18:55;;;;;;;;;;;;;;;19.75;100.00;99329.03;5034276;28;978;-57
2023/07/25 01:21:22;;;;;;;;;;;;;;;19.77;100.00;99334.94;5052584;28;1890;-57
2023/07/25 01:23:49;;;;;;;;;;;;;;;19.80;100.00;99341.66;5052353;28;972;-57
2023/07/25 01:26:19;;;;;;;;;;;;;;;19.82;100.00;99341.91;5052529;28;893;-57
2023/07/25 01:28:46;;;;;;;;;;;;;;;19.80;100.00;99341.66;5052331;28;844;-56
2023/07/25 01:31:12;;;;;;;;;;;;;;;19.79;100.00;99349.25;5052617;28;802;-57
2023/07/25 01:33:39;;;;;;;;;;;;;;;19.77;100.00;99343.34;5052348;28;816;-57
2023/07/25 01:36:06;;;;;;;;;;;;;;;19.77;100.00;99348.97;5052344;28;822;-57
2023/07/25 01:38:32;;;;;;;;;;;;;;;19.76;100.00;99353.03;5052233;28;838;-57
2023/07/25 01:40:58;;;;;;;;;;;;;;;19.74;100.00;99352.72;5052351;28;1890;-57
2023/07/25 01:43:25;;;;;;;;;;;;;;;19.75;100.00;99357.06;5052173;28;785;-57
2023/07/25 01:45:51;;;;;;;;;;;;;;;19.76;100.00;99355.84;5052163;28;955;-56
2023/07/25 01:48:18;;;;;;;;;;;;;;;19.77;100.00;99353.78;5052582;28;1016;-56
2023/07/25 01:50:45;;;;;;;;;;;;;;;19.76;100.00;99361.44;5052012;28;867;-57
2023/07/25 01:53:11;;;;;;;;;;;;;;;19.78;100.00;99358.16;5052008;28;870;-57
2023/07/25 01:55:37;;;;;;;;;;;;;;;19.84;100.00;99356.22;5051888;28;1441;-57
2023/07/25 01:58:03;;;;;;;;;;;;;;;19.84;100.00;99358.25;5052205;28;810;-56
2023/07/25 02:00:30;;;;;;;;;;;;;;;19.83;100.00;99356.72;5051821;28;1965;-57
2023/07/25 02:02:56;;;;;;;;;;;;;;;19.79;100.00;99356.91;5051862;28;823;-57
2023/07/25 02:05:23;;;;;;;;;;;;;;;19.71;100.00;99359.28;5051928;28;858;-56
2023/07/25 02:07:50;;;;;;;;;;;;;;;19.59;100.00;99361.03;5051824;28;845;-57
2023/07/25 02:10:17;;;;;;;;;;;;;;;19.52;100.00;99358.59;5051780;28;807;-57
2023/07/25 02:12:44;;;;;;;;;;;;;;;19.51;100.00;99371.03;5051855;28;877;-56
2023/07/25 02:15:11;;;;;;;;;;;;;;;19.50;100.00;99374.31;5051791;28;890;-57
2023/07/25 02:17:38;;;;;;;;;;;;;;;19.45;100.00;99372.94;5051843;28;865;-57
2023/07/25 02:20:05;;;;;;;;;;;;;;;19.41;100.00;99369.53;5051676;28;795;-57
2023/07/25 02:22:31;;;;;;;;;;;;;;;19.40;100.00;99378.44;5052029;28;881;-56
2023/07/25 02:24:58;;;;;;;;;;;;;;;19.38;100.00;99371.25;5051631;28;862;-56
2023/07/25 02:27:25;;;;;;;;;;;;;;;19.36;100.00;99379.34;5051721;28;897;-56
2023/07/25 02:29:52;;;;;;;;;;;;;;;19.31;100.00;99377.22;5054718;28;807;-57
2023/07/25 02:32:19;;;;;;;;;;;;;;;19.29;100.00;99368.50;5055737;28;875;-56
2023/07/25 02:34:46;;;;;;;;;;;;;;;19.26;100.00;99361.03;5055695;28;874;-57
2023/07/25 02:37:12;;;;;;;;;;;;;;;19.24;100.00;99349.50;5037832;28;1217;-57
2023/07/25 02:39:39;;;;;;;;;;;;;;;19.24;100.00;99340.34;5055596;28;1378;-57
2023/07/25 02:42:06;;;;;;;;;;;;;;;19.21;100.00;99346.91;5055402;28;1894;-57
2023/07/25 02:44:32;;;;;;;;;;;;;;;19.17;100.00;99347.81;5055526;28;893;-57
2023/07/25 02:46:59;;;;;;;;;;;;;;;19.16;100.00;99356.69;5055394;28;915;-57
2023/07/25 02:49:25;;;;;;;;;;;;;;;19.14;100.00;99356.41;5055434;28;918;-57
2023/07/25 02:51:52;;;;;;;;;;;;;;;19.14;100.00;99362.03;5055467;28;834;-57
2023/07/25 02:54:19;;;;;;;;;;;;;;;19.13;100.00;99349.25;5055321;28;816;-57
2023/07/25 02:56:46;;;;;;;;;;;;;;;19.10;100.00;99345.38;5055178;28;1286;-57
2023/07/25 02:59:12;;;;;;;;;;;;;;;19.08;100.00;99344.31;5055284;28;815;-57
2023/07/25 03:01:39;;;;;;;;;;;;;;;19.07;100.00;99345.53;5055251;28;1918;-57
2023/07/25 03:04:06;;;;;;;;;;;;;;;19.05;100.00;99348.03;5055465;28;807;-57
2023/07/25 03:06:32;;;;;;;;;;;;;;;19.05;100.00;99350.84;5055141;28;945;-57
2023/07/25 03:08:58;;;;;;;;;;;;;;;19.05;100.00;99340.41;5055306;28;842;-57
2023/07/25 03:11:25;;;;;;;;;;;;;;;19.05;100.00;99348.81;5055328;28;820;-56
2023/07/25 03:13:52;;;;;;;;;;;;;;;19.07;100.00;99343.50;5055413;28;826;-57
2023/07/25 03:16:18;;;;;;;;;;;;;;;19.13;100.00;99350.03;5055163;28;870;-57
2023/07/25 03:18:45;;;;;;;;;;;;;;;19.23;100.00;99356.38;5054962;28;1177;-57
2023/07/25 03:21:11;;;;;;;;;;;;;;;19.33;100.00;99359.91;5054829;28;1944;-57
2023/07/25 03:23:38;;;;;;;;;;;;;;;19.42;100.00;99350.69;5054961;28;870;-57
2023/07/25 03:26:05;;;;;;;;;;;;;;;19.50;100.00;99349.88;5054701;28;854;-57
2023/07/25 03:28:32;;;;;;;;;;;;;;;19.59;100.00;99352.63;5054968;28;838;-57
2023/07/25 03:30:58;;;;;;;;;;;;;;;19.68;100.00;99356.63;5054915;28;842;-57
2023/07/25 03:33:27;;;;;;;;;;;;;;;19.71;100.00;99361.31;5054767;28;800;-57
2023/07/25 03:35:54;;;;;;;;;;;;;;;19.73;100.00;99356.00;5054661;28;1263;-56
2023/07/25 03:38:21;;;;;;;;;;;;;;;19.76;100.00;99364.25;5054835;28;1272;-56
2023/07/25 03:40:48;;;;;;;;;;;;;;;19.81;100.00;99362.03;5053584;28;2029;-57
2023/07/25 03:43:15;;;;;;;;;;;;;;;19.85;100.00;99365.44;5054595;28;1184;-56
2023/07/25 03:45:42;;;;;;;;;;;;;;;19.91;100.00;99367.13;5053186;28;1208;-56
2023/07/25 03:48:09;;;;;;;;;;;;;;;20.02;100.00;99368.59;5054789;28;1306;-56
2023/07/25 03:50:36;;;;;;;;;;;;;;;20.11;100.00;99368.53;5055067;28;785;-56
2023/07/25 03:53:04;;;;;;;;;;;;;;;20.17;100.00;99372.22;5054503;28;838;-57
2023/07/25 03:55:31;;;;;;;;;;;;;;;20.24;100.00;99376.69;5054172;28;1227;-56
2023/07/25 03:57:58;;;;;;;;;;;;;;;20.28;100.00;99374.47;5054280;28;803;-57
2023/07/25 04:00:25;;;;;;;;;;;;;;;20.33;100.00;99373.81;5036445;28;1909;-57
2023/07/25 04:02:52;;;;;;;;;;;;;;;20.37;100.00;99368.78;5054266;28;842;-56
2023/07/25 04:05:18;;;;;;;;;;;;;;;20.47;100.00;99369.50;5054698;28;828;-57
2023/07/25 04:07:45;;;;;;;;;;;;;;;20.59;100.00;99371.28;5054296;28;1182;-57
2023/07/25 04:10:11;;;;;;;;;;;;;;;20.74;100.00;99372.06;5053955;28;818;-57
2023/07/25 04:12:38;;;;;;;;;;;;;;;20.86;100.00;99375.84;5053852;28;807;-57
2023/07/25 04:15:05;;;;;;;;;;;;;;;20.99;100.00;99370.72;5053874;28;842;-57
2023/07/25 04:17:32;;;;;;;;;;;;;;;21.12;100.00;99367.63;5053974;28;870;-57
2023/07/25 04:19:59;;;;;;;;;;;;;;;21.26;100.00;99379.31;5053722;28;862;-57
2023/07/25 04:22:26;;;;;;;;;;;;;;;21.40;100.00;99378.50;5053704;28;1889;-56
2023/07/25 04:24:53;;;;;;;;;;;;;;;21.50;100.00;99365.91;5053863;28;922;-56
2023/07/25 04:27:20;;;;;;;;;;;;;;;21.62;100.00;99364.06;5053598;28;813;-56
2023/07/25 04:29:46;;;;;;;;;;;;;;;21.75;100.00;99370.13;5053547;28;849;-57
2023/07/25 04:32:13;;;;;;;;;;;;;;;21.90;100.00;99372.09;5053641;28;834;-56
2023/07/25 04:34:40;;;;;;;;;;;;;;;21.97;100.00;99366.06;5053780;28;791;-56
2023/07/25 04:37:06;;;;;;;;;;;;;;;22.06;100.00;99371.53;5053752;28;902;-57
2023/07/25 04:39:33;;;;;;;;;;;;;;;22.17;100.00;99368.88;5053425;28;934;-56
2023/07/25 04:42:00;;;;;;;;;;;;;;;22.38;100.00;99368.88;5053281;28;1890;-56
2023/07/25 04:44:26;;;;;;;;;;;;;;;22.54;100.00;99365.47;5053298;28;807;-56
2023/07/25 04:46:53;;;;;;;;;;;;;;;22.66;100.00;99376.84;5053302;28;1017;-56
2023/07/25 04:49:20;;;;;;;;;;;;;;;22.84;100.00;99374.47;5053235;28;983;-56
2023/07/25 04:51:47;;;;;;;;;;;;;;;23.07;100.00;99371.13;5053022;28;799;-56
2023/07/25 04:54:14;;;;;;;;;;;;;;;23.29;100.00;99373.34;5053037;28;808;-56
2023/07/25 04:56:41;;;;;;;;;;;;;;;23.46;100.00;99373.47;5052894;28;1429;-56
2023/07/25 04:59:07;;;;;;;;;;;;;;;23.57;100.00;99370.72;5052905;28;826;-56
2023/07/25 05:01:34;;;;;;;;;;;;;;;23.73;100.00;99370.06;5052933;28;1971;-56
2023/07/25 05:04:00;;;;;;;;;;;;;;;23.99;100.00;99363.53;5052910;28;787;-56
2023/07/25 05:06:27;;;;;;;;;;;;;;;24.11;100.00;99358.72;5052888;28;862;-56
2023/07/25 05:08:53;;;;;;;;;;;;;;;24.18;100.00;99364.66;5052776;28;815;-56
2023/07/25 05:11:20;;;;;;;;;;;;;;;24.27;100.00;99366.47;5052834;28;822;-56
2023/07/25 05:13:47;;;;;;;;;;;;;;;24.46;100.00;99367.56;5052698;28;894;-56
2023/07/25 05:16:14;;;;;;;;;;;;;;;24.67;100.00;99375.88;5052741;28;854;-55
2023/07/25 05:18:41;;;;;;;;;;;;;;;24.93;100.00;99366.38;5052711;28;791;-56
2023/07/25 05:21:08;;;;;;;;;;;;;;;25.18;100.00;99364.59;5052462;28;1882;-56
2023/07/25 05:23:35;;;;;;;;;;;;;;;25.32;100.00;99357.16;5052629;28;799;-56
2023/07/25 05:26:01;;;;;;;;;;;;;;;25.52;100.00;99353.25;5052534;28;872;-55
2023/07/25 05:28:28;;;;;;;;;;;;;;;25.72;100.00;99360.69;5052418;28;863;-55
2023/07/25 05:30:55;;;;;;;;;;;;;;;25.82;100.00;99354.22;5052429;28;850;-56
2023/07/25 05:33:22;;;;;;;;;;;;;;;26.02;100.00;99360.88;5052588;28;838;-56
2023/07/25 05:35:48;;;;;;;;;;;;;;;26.18;100.00;99357.22;5052282;28;851;-56
2023/07/25 05:38:15;;;;;;;;;;;;;;;26.29;100.00;99367.72;5052555;28;822;-55
2023/07/25 05:40:42;;;;;;;;;;;;;;;26.39;100.00;99365.34;5052224;28;1886;-55
2023/07/25 05:43:08;;;;;;;;;;;;;;;26.45;100.00;99368.91;5052176;28;875;-56
2023/07/25 05:45:35;;;;;;;;;;;;;;;26.46;100.00;99364.78;5052304;28;783;-55
2023/07/25 05:48:01;;;;;;;;;;;;;;;26.55;100.00;99358.06;5052435;28;1005;-56
2023/07/25 05:50:28;;;;;;;;;;;;;;;26.71;100.00;99353.59;5052092;28;884;-55
2023/07/25 05:52:54;;;;;;;;;;;;;;;26.79;100.00;99352.50;5052375;28;788;-56
2023/07/25 05:55:21;;;;;;;;;;;;;;;26.93;100.00;99352.63;5051784;28;1264;-56
2023/07/25 05:57:47;;;;;;;;;;;;;;;27.09;100.00;99355.34;5051810;28;883;-56
2023/07/25 06:00:14;;;;;;;;;;;;;;;27.32;100.00;99357.25;5051930;28;1906;-56
2023/07/25 06:02:41;;;;;;;;;;;;;;;27.43;100.00;99357.91;5051533;28;921;-56
2023/07/25 06:05:07;;;;;;;;;;;;;;;27.42;100.00;99353.53;5051625;28;972;-55
2023/07/25 06:07:34;;;;;;;;;;;;;;;27.56;100.00;99354.44;5051840;28;827;-55
2023/07/25 06:10:01;;;;;;;;;;;;;;;27.74;100.00;99355.00;5051928;28;815;-54
2023/07/25 06:12:28;;;;;;;;;;;;;;;28.03;100.00;99339.22;5051821;28;826;-54
2023/07/25 06:14:55;;;;;;;;;;;;;;;28.31;100.00;99341.69;5052048;28;814;-55
2023/07/25 06:17:22;;;;;;;;;;;;;;;28.26;98.92;99337.63;5033937;28;1165;-55
2023/07/25 06:19:49;;;;;;;;;;;;;;;28.32;98.42;99336.78;5051859;28;802;-56
2023/07/25 06:22:15;;;;;;;;;;;;;;;28.50;98.12;99333.19;5051718;28;1952;-55
2023/07/25 06:24:42;;;;;;;;;;;;;;;28.66;97.34;99326.50;5051762;28;857;-55
2023/07/25 06:27:10;;;;;;;;;;;;;;;28.91;95.98;99329.19;5051686;28;807;-54
2023/07/25 06:29:36;;;;;;;;;;;;;;;29.00;94.41;99330.88;5033748;28;1204;-55
2023/07/25 06:32:02;;;;;;;;;;;;;;;28.89;94.82;99326.13;5051728;28;813;-56
2023/07/25 06:34:29;;;;;;;;;;;;;;;28.97;95.20;99321.34;5051537;28;863;-55
2023/07/25 06:36:56;;;;;;;;;;;;;;;29.08;94.83;99315.47;5051652;28;839;-54
2023/07/25 06:39:22;;;;;;;;;;;;;;;29.35;93.88;99324.06;5051655;28;798;-54
2023/07/25 06:41:48;;;;;;;;;;;;;;;29.65;92.71;99315.22;5051506;28;1957;-55
2023/07/25 06:44:15;;;;;;;;;;;;;;;30.05;91.23;99314.47;5051532;28;849;-55
2023/07/25 06:46:42;;;;;;;;;;;;;;;30.70;87.32;99312.75;5051571;28;899;-55
2023/07/25 06:49:08;;;;;;;;;;;;;;;31.31;81.90;99303.97;5051494;28;878;-55
2023/07/25 06:51:35;;;;;;;;;;;;;;;32.28;76.76;99297.06;5051646;28;822;-55
2023/07/25 06:54:02;;;;;;;;;;;;;;;33.04;72.87;99304.28;5051668;28;858;-54
2023/07/25 06:56:28;;;;;;;;;;;;;;;33.57;67.32;99297.00;5051293;28;1292;-55
2023/07/25 06:58:55;;;;;;;;;;;;;;;34.37;64.02;99295.56;5052011;28;791;-55
2023/07/25 07:01:27;;;;;;;;;;;;;;;34.70;61.32;99307.09;5051482;28;1909;-55
2023/07/25 07:03:55;;;;;;;;;;;;;;;34.85;59.80;99292.63;5051441;28;881;-55
2023/07/25 07:06:21;;;;;;;;;;;;;;;34.82;58.97;99290.13;5051359;28;846;-55
2023/07/25 07:08:48;;;;;;;;;;;;;;;35.14;58.70;99292.97;5051285;28;905;-55
2023/07/25 07:11:15;;;;;;;;;;;;;;;35.23;54.56;99296.53;5051323;28;824;-55
2023/07/25 07:13:41;;;;;;;;;;;;;;;35.21;53.59;99290.59;5051251;28;906;-54
2023/07/25 07:16:09;;;;;;;;;;;;;;;35.06;53.66;99300.09;5054643;28;890;-55
2023/07/25 07:18:35;;;;;;;;;;;;;;;35.34;52.67;99304.66;5054957;28;882;-53
2023/07/25 07:21:02;;;;;;;;;;;;;;;35.46;51.44;99299.94;5055135;28;1914;-55
2023/07/25 07:23:29;;;;;;;;;;;;;;;35.36;51.19;99296.22;5055178;28;807;-55
2023/07/25 07:25:57;;;;;;;;;;;;;;;35.26;51.74;99283.88;5054849;28;846;-53
2023/07/25 07:28:23;;;;;;;;;;;;;;;35.31;51.75;99283.59;5037246;28;919;-54
2023/07/25 07:30:51;;;;;;;;;;;;;;;35.80;50.22;99278.31;5054788;28;871;-54
2023/07/25 07:33:18;;;;;;;;;;;;;;;35.94;49.22;99273.00;5054853;28;886;-55
2023/07/25 07:35:45;;;;;;;;;;;;;;;35.83;48.10;99271.41;5054728;28;819;-54
2023/07/25 07:38:12;;;;;;;;;;;;;;;35.70;48.39;99269.63;5054624;28;795;-54
2023/07/25 07:40:38;;;;;;;;;;;;;;;36.22;47.23;99268.81;5054460;28;1914;-55
2023/07/25 07:43:04;;;;;;;;;;;;;;;36.18;47.20;99272.09;5054589;28;811;-56
2023/07/25 07:45:33;;;;;;;;;;;;;;;36.28;45.55;99277.94;5036573;28;1322;-55
2023/07/25 07:48:01;;;;;;;;;;;;;;;36.15;44.76;99267.56;5054980;28;1048;-55
2023/07/25 07:50:29;;;;;;;;;;;;;;;36.18;44.62;99266.34;5054325;28;1211;-56
2023/07/25 07:52:56;;;;;;;;;;;;;;;35.75;44.63;99262.84;5054392;28;838;-56
2023/07/25 07:55:22;;;;;;;;;;;;;;;35.76;44.88;99258.66;5053978;28;1371;-56
2023/07/25 07:57:49;;;;;;;;;;;;;;;35.99;44.04;99269.84;5054197;28;799;-56
2023/07/25 08:00:16;;;;;;;;;;;;;;;35.71;44.82;99274.03;5054255;28;854;-56
2023/07/25 08:02:43;;;;;;;;;;;;;;;35.78;44.80;99269.53;5054097;28;1910;-56
2023/07/25 08:05:10;;;;;;;;;;;;;;;35.83;45.58;99257.03;5054342;28;875;-56
2023/07/25 08:07:38;;;;;;;;;;;;;;;36.11;45.21;99254.94;5053995;28;835;-56
2023/07/25 08:10:04;;;;;;;;;;;;;;;36.41;44.16;99253.03;5054151;28;846;-56
2023/07/25 08:12:31;;;;;;;;;;;;;;;36.79;42.95;99243.81;5053972;28;830;-54
2023/07/25 08:14:58;;;;;;;;;;;;;;;37.03;42.72;99244.16;5053984;28;874;-56
2023/07/25 08:17:25;;;;;;;;;;;;;;;37.17;42.43;99228.78;5053889;28;909;-56
2023/07/25 08:19:52;;;;;;;;;;;;;;;37.61;41.49;99226.22;5053785;28;852;-56
2023/07/25 08:22:19;;;;;;;;;;;;;;;37.39;41.18;99221.03;5053663;28;1944;-56
2023/07/25 08:24:46;;;;;;;;;;;;;;;37.32;40.54;99219.06;5053592;28;988;-56
2023/07/25 08:27:13;;;;;;;;;;;;;;;37.21;41.10;99219.66;5053148;28;860;-56
2023/07/25 08:29:42;;;;;;;;;;;;;;;37.69;40.40;99215.31;5053632;28;961;-56
2023/07/25 08:32:09;;;;;;;;;;;;;;;37.82;39.37;99211.94;5053664;28;795;-56
2023/07/25 08:34:36;;;;;;;;;;;;;;;37.70;39.66;99206.03;5053460;28;1000;-56
2023/07/25 08:37:03;;;;;;;;;;;;;;;37.86;39.49;99205.72;5053628;28;819;-56
2023/07/25 08:39:30;;;;;;;;;;;;;;;37.57;39.73;99194.97;5053418;28;929;-56
2023/07/25 08:41:57;;;;;;;;;;;;;;;37.66;39.58;99199.22;5053485;28;1951;-56
2023/07/25 08:44:25;;;;;;;;;;;;;;;37.59;39.41;99200.88;5053395;28;858;-56
2023/07/25 08:46:53;;;;;;;;;;;;;;;37.77;38.76;99195.72;5053454;28;1004;-56
2023/07/25 08:49:28;;;;;;;;;;;;;;;37.69;39.26;99193.00;5053248;28;831;-56
2023/07/25 08:51:57;;;;;;;;;;;;;;;37.26;39.38;99201.34;5035372;28;917;-55
2023/07/25 08:54:33;;;;;;;;;;;;;;;37.19;39.02;99199.34;5053684;28;838;-55
2023/07/25 08:57:01;;;;;;;;;;;;;;;37.61;37.29;99191.63;5052956;28;1270;-56
2023/07/25 08:59:30;;;;;;;;;;;;;;;37.78;37.40;99183.56;5053179;28;798;-56
2023/07/25 09:01:57;;;;;;;;;;;;;;;37.90;37.75;99182.94;5052904;28;1965;-56
2023/07/25 09:04:24;;;;;;;;;;;;;;;37.81;37.57;99190.22;5053079;28;806;-56
2023/07/25 09:06:51;;;;;;;;;;;;;;;37.75;38.35;99184.03;5052965;28;870;-56
2023/07/25 09:09:18;;;;;;;;;;;;;;;38.04;36.37;99181.09;5052929;28;842;-56
2023/07/25 09:11:44;;;;;;;;;;;;;;;38.54;35.31;99180.31;5035008;28;870;-55
2023/07/25 09:14:11;;;;;;;;;;;;;;;38.29;35.55;99180.72;5052851;28;861;-56
2023/07/25 09:47:40;;;;;;;;;;;;;;;37.62;35.02;99156.44;5463856;22;1855;-65
2023/07/25 09:50:07;;;;;;;;;;;;;;;37.56;34.79;99132.91;5032339;28;862;-67
2023/07/25 09:52:41;;;;;;;;;;;;;;;37.48;34.35;99135.94;5032335;28;868;-66
2023/07/25 09:55:09;;;;;;;;;;;;;;;37.32;34.84;99132.66;5032386;28;850;-64
2023/07/25 09:57:35;;;;;;;;;;;;;;;37.39;35.15;99130.97;5032257;28;908;-66
2023/07/25 10:00:03;;;;;;;;;;;;;;;37.43;35.30;99124.72;5032082;28;914;-64
2023/07/25 10:02:31;;;;;;;;;;;;;;;37.55;34.18;99116.97;5031970;28;1906;-66
2023/07/25 10:04:58;;;;;;;;;;;;;;;37.64;34.15;99115.47;5032094;28;935;-64
2023/07/25 10:07:25;;;;;;;;;;;;;;;37.69;34.56;99120.91;5032052;28;921;-65
2023/07/25 10:09:52;;;;;;;;;;;;;;;37.73;34.48;99112.56;5031941;28;955;-64
2023/07/25 10:12:19;;;;;;;;;;;;;;;37.78;33.71;99117.25;5032043;28;815;-65
2023/07/25 10:14:46;;;;;;;;;;;;;;;37.82;33.92;99125.44;5031980;28;894;-64
2023/07/25 10:17:12;;;;;;;;;;;;;;;37.90;33.13;99123.13;5031747;28;838;-66
2023/07/25 10:19:54;;;;;;;;;;;;;;;37.93;32.07;99118.28;5031902;28;1005;-62
2023/07/25 10:22:39;;;;;;;;;;;;;;;37.91;31.18;99110.22;5031700;28;1882;-63
2023/07/25 10:25:10;;;;;;;;;;;;;;;38.09;30.97;99110.03;5031789;28;937;-62
2023/07/25 10:27:36;;;;;;;;;;;;;;;38.35;30.62;99099.59;5032072;28;810;-63
2023/07/25 10:30:21;;;;;;;;;;;;;;;38.30;30.96;99089.91;5031837;28;826;-63
2023/07/25 10:32:50;;;;;;;;;;;;;;;38.34;30.00;99098.81;5031849;28;842;-63
2023/07/25 10:35:37;;;;;;;;;;;;;;;38.33;30.05;99099.44;5031749;28;830;-63
2023/07/25 10:38:07;;;;;;;;;;;;;;;38.43;30.40;99096.50;5031716;28;853;-64
2023/07/25 10:40:50;;;;;;;;;;;;;;;38.48;30.31;99089.66;5031547;28;1997;-63
2023/07/25 10:43:17;;;;;;;;;;;;;;;38.65;30.63;99091.53;5031747;28;823;-63
2023/07/25 10:45:50;;;;;;;;;;;;;;;38.81;30.45;99095.50;5031564;28;806;-63
2023/07/25 10:48:30;;;;;;;;;;;;;;;39.14;30.33;99092.69;5031463;28;1348;-63
2023/07/25 10:50:57;;;;;;;;;;;;;;;39.41;30.26;99088.63;5034704;28;854;-65
2023/07/25 10:53:24;;;;;;;;;;;;;;;39.53;29.28;99083.66;5035454;28;802;-65
2023/07/25 10:56:07;;;;;;;;;;;;;;;39.57;29.50;99086.06;5035765;28;876;-63
2023/07/25 10:59:00;;;;;;;;;;;;;;;39.81;29.31;99073.13;5035656;28;937;-64
2023/07/25 11:01:43;;;;;;;;;;;;;;;39.96;28.83;99068.25;5035364;28;1979;-66
2023/07/25 11:04:28;;;;;;;;;;;;;;;40.06;28.09;99071.03;5035295;28;893;-64
2023/07/25 11:06:59;;;;;;;;;;;;;;;40.34;27.92;99064.09;5035291;28;889;-65
2023/07/25 11:09:26;;;;;;;;;;;;;;;40.22;27.93;99054.66;5035350;28;1177;-66
2023/07/25 11:11:54;;;;;;;;;;;;;;;40.00;27.95;99054.78;5035235;28;1249;-66
2023/07/25 11:14:22;;;;;;;;;;;;;;;40.28;27.71;99049.25;5035471;28;885;-66
2023/07/25 11:16:49;;;;;;;;;;;;;;;40.80;27.79;99041.50;5035262;28;878;-66
2023/07/25 11:19:16;;;;;;;;;;;;;;;40.89;27.57;99040.56;5035543;28;877;-68
2023/07/25 11:21:43;;;;;;;;;;;;;;;40.62;27.05;99038.97;5035100;28;1961;-65
2023/07/25 11:24:11;;;;;;;;;;;;;;;40.67;26.78;99022.63;5035117;28;917;-66
2023/07/25 11:26:39;;;;;;;;;;;;;;;40.91;26.00;99029.09;5035133;28;857;-67
2023/07/25 11:29:06;;;;;;;;;;;;;;;40.83;26.10;99024.97;5034939;28;850;-66
2023/07/25 11:31:36;;;;;;;;;;;;;;;40.91;26.62;99023.31;5034949;28;878;-66
2023/07/25 11:34:12;;;;;;;;;;;;;;;40.96;26.38;99027.19;5034796;28;886;-65
2023/07/25 11:36:40;;;;;;;;;;;;;;;41.03;25.92;99017.44;5034878;28;870;-68
2023/07/25 11:39:08;;;;;;;;;;;;;;;41.20;25.76;99008.31;5033474;28;1411;-67
2023/07/25 11:41:38;;;;;;;;;;;;;;;41.47;25.76;99006.88;5034622;28;1893;-66
2023/07/25 11:44:15;;;;;;;;;;;;;;;41.85;25.65;99006.75;5034543;28;889;-66
2023/07/25 11:46:43;;;;;;;;;;;;;;;42.36;24.80;99012.31;5034553;28;1026;-65
2023/07/25 11:49:13;;;;;;;;;;;;;;;42.40;24.54;99012.50;5034311;28;1319;-66
2023/07/25 11:51:40;;;;;;;;;;;;;;;42.16;24.50;99015.66;5034571;28;858;-66
2023/07/25 11:54:07;;;;;;;;;;;;;;;42.03;24.21;99004.81;5034459;28;815;-64
2023/07/25 11:56:35;;;;;;;;;;;;;;;42.11;24.64;98996.53;5034434;28;860;-65
2023/07/25 11:59:02;;;;;;;;;;;;;;;42.32;24.00;98989.63;5034320;28;885;-67
2023/07/25 12:01:32;;;;;;;;;;;;;;;42.06;23.88;98986.13;5033344;28;1923;-66
2023/07/25 12:04:02;;;;;;;;;;;;;;;42.20;23.29;98989.00;5034268;28;804;-68
2023/07/25 12:06:30;;;;;;;;;;;;;;;42.05;23.45;98972.25;5034520;28;873;-66
2023/07/25 12:08:58;;;;;;;;;;;;;;;42.29;23.93;98984.38;5034522;28;1149;-68
2023/07/25 12:11:26;;;;;;;;;;;;;;;42.57;23.32;98973.44;5034388;28;839;-67
2023/07/25 12:13:57;;;;;;;;;;;;;;;42.81;23.50;98971.75;5034200;28;826;-65
2023/07/25 12:16:28;;;;;;;;;;;;;;;42.96;23.32;98966.66;5033998;28;838;-68
2023/07/25 12:18:56;;;;;;;;;;;;;;;42.88;23.32;98961.22;5034025;28;890;-67
2023/07/25 12:21:23;;;;;;;;;;;;;;;43.35;22.88;98962.69;5033842;28;1890;-66
2023/07/25 12:23:51;;;;;;;;;;;;;;;43.47;22.40;98965.41;5033860;28;880;-66
2023/07/25 12:26:21;;;;;;;;;;;;;;;43.51;22.28;98951.81;5033923;28;815;-66
2023/07/25 12:28:48;;;;;;;;;;;;;;;43.56;23.85;98946.94;5033748;28;865;-68
2023/07/25 12:31:15;;;;;;;;;;;;;;;43.37;24.41;98940.28;5034075;28;832;-67
2023/07/25 12:33:44;;;;;;;;;;;;;;;43.13;24.97;98939.13;5033692;28;890;-67
2023/07/25 12:36:11;;;;;;;;;;;;;;;43.59;24.50;98943.44;5032394;28;1262;-68
2023/07/25 12:38:39;;;;;;;;;;;;;;;43.18;24.50;98944.47;5033570;28;857;-68
2023/07/25 12:41:05;;;;;;;;;;;;;;;43.70;24.58;98952.66;5033585;28;1898;-67
2023/07/25 12:47:11;;;;;;;;;;;;;;;43.35;24.85;98943.09;5033439;28;1008;-68
2023/07/25 12:49:37;;;;;;;;;;;;;;;43.02;25.53;98943.72;4993956;28;854;-68
2023/07/25 12:52:04;;;;;;;;;;;;;;;42.80;25.55;98934.63;4994139;28;916;-68
2023/07/25 12:54:30;;;;;;;;;;;;;;;42.90;25.45;98931.50;4994131;28;869;-68
2023/07/25 12:56:56;;;;;;;;;;;;;;;43.26;24.96;98923.78;4993878;28;876;-68
2023/07/25 12:59:23;;;;;;;;;;;;;;;43.60;24.60;98924.59;4993875;28;884;-68
2023/07/25 13:01:50;;;;;;;;;;;;;;;43.90;24.48;98920.81;4993885;28;1918;-67
2023/07/25 13:04:18;;;;;;;;;;;;;;;43.96;24.25;98921.09;4993812;28;782;-68
2023/07/25 13:06:43;;;;;;;;;;;;;;;43.94;24.06;98918.81;4993797;28;954;-68
2023/07/25 13:09:10;;;;;;;;;;;;;;;43.33;24.41;98907.38;4993834;28;798;-71
2023/07/25 13:11:37;;;;;;;;;;;;;;;43.01;24.55;98913.88;4994071;28;851;-67
2023/07/25 13:14:03;;;;;;;;;;;;;;;43.22;24.98;98909.78;4993876;28;807;-67
2023/07/25 13:16:30;;;;;;;;;;;;;;;43.47;24.50;98913.84;4993752;28;787;-69
2023/07/25 13:18:57;;;;;;;;;;;;;;;43.66;24.26;98912.53;4993794;28;811;-68
2023/07/25 13:21:24;;;;;;;;;;;;;;;43.12;24.67;98905.66;4993705;28;1961;-67
2023/07/25 13:23:51;;;;;;;;;;;;;;;42.99;25.06;98901.41;4993878;28;1174;-69
2023/07/25 13:26:17;;;;;;;;;;;;;;;42.86;25.13;98908.81;4993627;28;830;-67
2023/07/25 13:28:44;;;;;;;;;;;;;;;42.89;24.91;98898.03;4993468;28;1136;-67
2023/07/25 13:31:11;;;;;;;;;;;;;;;43.09;24.89;98893.19;5008511;28;1180;-68
2023/07/25 13:33:38;;;;;;;;;;;;;;;43.28;24.85;98896.97;4993393;28;1221;-67
2023/07/25 13:36:05;;;;;;;;;;;;;;;43.34;24.81;98883.44;4993217;28;1292;-70